Time;durP1;ratioP1;P1;durP2;ratioP2;P2;SDS_P1;SDS_P2;PMS_P1;PMS_P2;Temp;Humidity;BMP_temperature;BMP_pressure;BME280_temperature;BME280_humidity;BME280_pressure;Samples;Min_cycle;Max_cycle;Signal;HPM_P1;HPM_P2
2021/08/18 00:00:44;;;;;;;12.05;6.95;;;;;;;;;;5095323;28;20028;-78
2021/08/18 00:03:10;;;;;;;10.70;6.10;;;;;;;;;;5110940;28;20039;-79
2021/08/18 00:05:38;;;;;;;12.73;6.07;;;;;;;;;;5094160;28;20024;-79
2021/08/18 00:08:05;;;;;;;8.50;6.03;;;;;;;;;;5094993;28;20032;-79
2021/08/18 00:10:31;;;;;;;11.55;6.43;;;;;;;;;;5110340;28;20099;-79
2021/08/18 00:12:56;;;;;;;9.02;5.82;;;;;;;;;;5111684;28;20032;-79
2021/08/18 00:15:24;;;;;;;13.05;6.28;;;;;;;;;;5109018;28;20038;-78
2021/08/18 00:17:50;;;;;;;8.43;5.85;;;;;;;;;;5094256;28;20036;-79
2021/08/18 00:20:16;;;;;;;7.03;5.07;;;;;;;;;;5095668;28;20062;-79
2021/08/18 00:22:43;;;;;;;11.10;5.95;;;;;;;;;;5094800;28;20036;-79
2021/08/18 00:25:09;;;;;;;6.72;5.53;;;;;;;;;;5111443;28;20036;-78
2021/08/18 00:27:35;;;;;;;10.00;6.38;;;;;;;;;;5094301;28;20040;-79
2021/08/18 00:30:00;;;;;;;9.43;6.30;;;;;;;;;;5114338;28;20127;-79
2021/08/18 00:32:25;;;;;;;12.52;6.10;;;;;;;;;;5098958;28;20028;-79
2021/08/18 00:34:51;;;;;;;8.18;5.90;;;;;;;;;;5113257;28;20115;-79
2021/08/18 00:37:16;;;;;;;8.98;5.65;;;;;;;;;;5116697;28;20063;-79
2021/08/18 00:39:42;;;;;;;9.52;5.60;;;;;;;;;;5115537;28;20108;-79
2021/08/18 00:42:07;;;;;;;9.95;5.55;;;;;;;;;;5115541;28;20036;-79
2021/08/18 00:44:34;;;;;;;10.95;5.97;;;;;;;;;;5097935;28;20101;-79
2021/08/18 00:47:00;;;;;;;8.40;5.75;;;;;;;;;;5114937;28;20075;-78
2021/08/18 00:49:26;;;;;;;9.90;6.03;;;;;;;;;;5113345;28;20028;-78
2021/08/18 00:51:55;;;;;;;7.65;5.43;;;;;;;;;;5107276;28;20043;-78
2021/08/18 00:54:20;;;;;;;11.02;5.40;;;;;;;;;;5071512;28;20027;-78
2021/08/18 00:56:47;;;;;;;7.72;5.30;;;;;;;;;;5068304;28;20036;-78
2021/08/18 00:59:13;;;;;;;8.55;5.60;;;;;;;;;;5084775;28;20032;-78
2021/08/18 01:01:40;;;;;;;7.80;5.18;;;;;;;;;;5067884;28;20042;-78
2021/08/18 01:04:06;;;;;;;7.95;4.88;;;;;;;;;;5108936;28;20035;-78
2021/08/18 01:06:39;;;;;;;9.98;5.40;;;;;;;;;;5108978;28;20030;-79
2021/08/18 01:09:05;;;;;;;7.03;5.07;;;;;;;;;;5109238;28;20035;-78
2021/08/18 01:11:34;;;;;;;8.48;4.88;;;;;;;;;;5127133;28;20036;-78
2021/08/18 01:14:00;;;;;;;6.05;4.25;;;;;;;;;;5107932;28;20073;-78
2021/08/18 01:16:26;;;;;;;6.35;4.70;;;;;;;;;;5107918;28;20043;-78
2021/08/18 01:18:51;;;;;;;7.43;4.68;;;;;;;;;;5108912;28;20031;-78
2021/08/18 01:21:17;;;;;;;6.78;3.70;;;;;;;;;;5126437;28;20038;-78
2021/08/18 01:23:42;;;;;;;6.90;4.22;;;;;;;;;;5104568;28;20042;-79
2021/08/18 01:26:08;;;;;;;6.72;4.25;;;;;;;;;;5098946;28;20119;-79
2021/08/18 01:28:33;;;;;;;7.22;3.95;;;;;;;;;;5099417;27;20476;-79
2021/08/18 01:30:58;;;;;;;7.45;4.20;;;;;;;;;;5099206;28;20032;-79
2021/08/18 01:33:24;;;;;;;8.15;4.25;;;;;;;;;;5099125;28;20055;-79
2021/08/18 01:35:51;;;;;;;5.50;3.45;;;;;;;;;;5100767;28;20032;-79
2021/08/18 01:38:18;;;;;;;8.23;3.92;;;;;;;;;;5099534;28;20031;-79
2021/08/18 01:40:46;;;;;;;9.32;3.33;;;;;;;;;;5099044;28;20028;-79
2021/08/18 01:43:11;;;;;;;5.28;3.55;;;;;;;;;;5098953;28;20036;-79
2021/08/18 01:45:41;;;;;;;9.82;3.60;;;;;;;;;;5098965;28;20050;-79
2021/08/18 01:48:07;;;;;;;6.15;3.13;;;;;;;;;;5081681;28;20032;-79
2021/08/18 01:50:32;;;;;;;4.28;2.88;;;;;;;;;;5081882;28;20027;-79
2021/08/18 01:52:58;;;;;;;6.97;3.10;;;;;;;;;;5100077;28;20032;-78
2021/08/18 01:55:24;;;;;;;3.83;2.80;;;;;;;;;;5085931;28;20032;-78
2021/08/18 01:57:50;;;;;;;3.65;2.80;;;;;;;;;;5087745;28;20104;-78
2021/08/18 02:00:17;;;;;;;9.05;3.08;;;;;;;;;;5104831;28;20067;-78
2021/08/18 02:02:43;;;;;;;3.42;2.50;;;;;;;;;;5088686;28;20059;-78
2021/08/18 02:05:08;;;;;;;7.90;2.60;;;;;;;;;;5078751;28;20036;-79
2021/08/18 02:07:35;;;;;;;6.18;3.17;;;;;;;;;;5061188;28;20052;-78
2021/08/18 02:10:02;;;;;;;6.00;3.00;;;;;;;;;;5076879;28;20028;-78
2021/08/18 02:12:27;;;;;;;6.47;3.20;;;;;;;;;;5077527;28;20094;-78
2021/08/18 02:14:53;;;;;;;4.13;2.80;;;;;;;;;;5079337;28;20040;-79
2021/08/18 02:17:18;;;;;;;3.75;2.20;;;;;;;;;;5062393;28;20032;-79
2021/08/18 02:19:44;;;;;;;4.53;2.58;;;;;;;;;;5062681;28;20074;-79
2021/08/18 02:22:09;;;;;;;3.58;2.50;;;;;;;;;;5078618;28;20428;-79
2021/08/18 02:24:36;;;;;;;2.90;1.88;;;;;;;;;;5078173;28;20039;-79
2021/08/18 02:27:01;;;;;;;4.68;2.20;;;;;;;;;;5079148;28;20029;-79
2021/08/18 02:29:27;;;;;;;3.67;2.20;;;;;;;;;;5077787;28;20033;-79
2021/08/18 02:31:52;;;;;;;3.30;2.40;;;;;;;;;;5061244;28;20039;-79
2021/08/18 02:34:19;;;;;;;2.97;2.15;;;;;;;;;;5080740;28;20053;-79
2021/08/18 02:36:44;;;;;;;5.90;2.05;;;;;;;;;;5062010;28;20036;-80
2021/08/18 02:39:10;;;;;;;4.90;2.17;;;;;;;;;;5062272;28;20082;-79
2021/08/18 02:41:36;;;;;;;3.20;2.00;;;;;;;;;;5083428;28;20016;-78
2021/08/18 02:44:03;;;;;;;4.80;2.60;;;;;;;;;;5083832;28;20055;-79
2021/08/18 02:46:28;;;;;;;3.72;2.15;;;;;;;;;;5086975;28;20035;-78
2021/08/18 02:48:53;;;;;;;8.55;2.17;;;;;;;;;;5086816;28;20024;-78
2021/08/18 02:51:19;;;;;;;4.10;1.80;;;;;;;;;;5086991;28;20486;-78
2021/08/18 02:53:44;;;;;;;3.35;1.95;;;;;;;;;;5098568;28;20038;-78
2021/08/18 02:56:10;;;;;;;3.45;2.20;;;;;;;;;;5067346;28;20067;-78
2021/08/18 02:58:36;;;;;;;2.60;1.80;;;;;;;;;;5066884;28;20036;-78
2021/08/18 03:01:02;;;;;;;2.97;1.80;;;;;;;;;;5067024;28;20043;-78
2021/08/18 03:03:27;;;;;;;3.50;2.00;;;;;;;;;;5083810;28;20040;-78
2021/08/18 03:05:52;;;;;;;2.47;2.03;;;;;;;;;;5082677;28;20032;-78
2021/08/18 03:08:18;;;;;;;2.22;1.40;;;;;;;;;;5082490;28;20072;-78
2021/08/18 03:10:43;;;;;;;3.88;2.00;;;;;;;;;;5064049;28;20036;-78
2021/08/18 03:13:09;;;;;;;3.13;1.70;;;;;;;;;;5061041;28;20054;-78
2021/08/18 03:15:34;;;;;;;2.35;1.60;;;;;;;;;;5060290;28;20402;-78
2021/08/18 03:18:03;;;;;;;1.70;1.42;;;;;;;;;;5076898;28;20043;-78
2021/08/18 03:20:29;;;;;;;2.22;1.60;;;;;;;;;;5061161;28;20123;-78
2021/08/18 03:22:55;;;;;;;2.67;1.80;;;;;;;;;;5061475;28;20095;-78
2021/08/18 03:25:20;;;;;;;2.80;1.75;;;;;;;;;;5094330;28;20032;-78
2021/08/18 03:27:46;;;;;;;2.60;1.75;;;;;;;;;;5101057;28;20111;-79
2021/08/18 03:30:12;;;;;;;2.47;1.70;;;;;;;;;;5100043;28;20024;-78
2021/08/18 03:32:37;;;;;;;3.20;1.70;;;;;;;;;;5083567;28;20036;-79
2021/08/18 03:35:03;;;;;;;4.03;2.30;;;;;;;;;;5101136;28;20390;-78
2021/08/18 03:37:29;;;;;;;1.83;1.65;;;;;;;;;;5101073;28;20181;-78
2021/08/18 03:39:54;;;;;;;2.53;1.70;;;;;;;;;;5102513;28;20036;-78
2021/08/18 03:42:21;;;;;;;3.53;2.40;;;;;;;;;;5100227;28;20038;-78
2021/08/18 03:44:46;;;;;;;3.97;2.35;;;;;;;;;;5082331;28;20055;-78
2021/08/18 03:47:11;;;;;;;4.07;2.42;;;;;;;;;;5101055;28;20459;-78
2021/08/18 03:49:37;;;;;;;4.57;2.38;;;;;;;;;;5101682;28;20039;-78
2021/08/18 03:52:03;;;;;;;3.58;1.95;;;;;;;;;;5085119;28;20123;-78
2021/08/18 03:54:28;;;;;;;4.40;2.30;;;;;;;;;;5100916;28;20036;-78
2021/08/18 03:56:53;;;;;;;4.50;2.30;;;;;;;;;;5103399;28;20042;-79
2021/08/18 03:59:19;;;;;;;4.03;2.85;;;;;;;;;;5081196;28;20032;-78
2021/08/18 04:01:44;;;;;;;4.22;2.53;;;;;;;;;;5097564;28;20452;-78
2021/08/18 04:04:10;;;;;;;3.42;2.40;;;;;;;;;;5115137;28;20067;-78
2021/08/18 04:06:35;;;;;;;3.10;2.08;;;;;;;;;;5098621;28;20027;-78
2021/08/18 04:09:02;;;;;;;3.45;2.30;;;;;;;;;;5099305;28;20090;-78
2021/08/18 04:11:27;;;;;;;8.02;2.35;;;;;;;;;;5099235;28;20040;-78
2021/08/18 04:13:53;;;;;;;5.15;2.80;;;;;;;;;;5116513;28;20469;-78
2021/08/18 04:16:18;;;;;;;3.20;2.47;;;;;;;;;;5117602;28;20032;-78
2021/08/18 04:18:44;;;;;;;2.95;2.30;;;;;;;;;;5097610;28;20508;-78
2021/08/18 04:21:12;;;;;;;2.97;2.30;;;;;;;;;;5096034;28;20161;-78
2021/08/18 04:23:37;;;;;;;3.90;2.78;;;;;;;;;;5075583;28;20043;-78
2021/08/18 04:26:02;;;;;;;3.72;2.25;;;;;;;;;;5076977;28;20032;-78
2021/08/18 04:28:28;;;;;;;4.00;2.75;;;;;;;;;;5077830;28;20047;-78
2021/08/18 04:30:53;;;;;;;4.65;2.15;;;;;;;;;;5079225;28;20505;-78
2021/08/18 04:33:19;;;;;;;3.38;2.28;;;;;;;;;;5078795;28;20036;-79
2021/08/18 04:35:45;;;;;;;2.97;2.25;;;;;;;;;;5066692;28;20141;-78
2021/08/18 04:38:10;;;;;;;4.82;2.80;;;;;;;;;;5065450;28;20040;-79
2021/08/18 04:40:36;;;;;;;6.45;2.83;;;;;;;;;;5065568;28;20037;-78
2021/08/18 04:43:02;;;;;;;3.60;2.58;;;;;;;;;;5081905;28;20123;-78
2021/08/18 04:45:28;;;;;;;3.40;2.42;;;;;;;;;;5064861;28;20079;-78
2021/08/18 04:47:53;;;;;;;3.15;2.55;;;;;;;;;;5063696;28;20028;-78
2021/08/18 04:50:20;;;;;;;6.07;3.65;;;;;;;;;;5080782;28;20390;-78
2021/08/18 04:52:46;;;;;;;3.65;2.53;;;;;;;;;;5096608;28;20031;-78
2021/08/18 04:55:14;;;;;;;3.38;2.67;;;;;;;;;;5121896;28;20081;-78
2021/08/18 04:57:39;;;;;;;4.03;2.45;;;;;;;;;;5107332;28;20088;-78
2021/08/18 05:00:07;;;;;;;3.00;2.38;;;;;;;;;;5107275;28;20035;-78
2021/08/18 05:02:34;;;;;;;2.58;2.28;;;;;;;;;;5107120;28;20036;-78
2021/08/18 05:05:01;;;;;;;7.57;3.13;;;;;;;;;;5107398;28;20031;-78
2021/08/18 05:07:28;;;;;;;5.13;3.00;;;;;;;;;;5108699;28;20024;-78
2021/08/18 05:09:54;;;;;;;3.75;2.80;;;;;;;;;;5125843;28;20481;-79
2021/08/18 05:12:19;;;;;;;3.17;2.60;;;;;;;;;;5122064;28;20057;-79
2021/08/18 05:14:46;;;;;;;6.22;3.35;;;;;;;;;;5117425;28;20032;-79
2021/08/18 05:17:11;;;;;;;5.40;3.40;;;;;;;;;;5121692;28;20122;-80
2021/08/18 05:19:37;;;;;;;3.65;2.80;;;;;;;;;;5121667;28;20130;-80
2021/08/18 05:22:02;;;;;;;4.93;3.53;;;;;;;;;;5110363;28;20047;-80
2021/08/18 05:24:28;;;;;;;4.05;3.63;;;;;;;;;;5101256;28;20070;-80
2021/08/18 05:26:54;;;;;;;6.03;3.70;;;;;;;;;;5083600;28;20166;-79
2021/08/18 05:29:19;;;;;;;4.40;3.60;;;;;;;;;;5100711;28;20039;-79
2021/08/18 05:31:44;;;;;;;5.20;3.80;;;;;;;;;;5100304;28;20019;-79
2021/08/18 05:34:11;;;;;;;6.43;3.92;;;;;;;;;;5100133;28;20079;-79
2021/08/18 05:36:36;;;;;;;5.10;3.90;;;;;;;;;;5100167;28;20028;-79
2021/08/18 05:39:02;;;;;;;5.43;4.15;;;;;;;;;;5083165;28;20039;-79
2021/08/18 05:41:27;;;;;;;5.35;3.90;;;;;;;;;;5083364;28;20035;-79
2021/08/18 05:43:53;;;;;;;6.70;4.07;;;;;;;;;;5082982;28;20036;-80
2021/08/18 05:46:19;;;;;;;6.22;4.68;;;;;;;;;;5099909;28;20032;-80
2021/08/18 05:48:45;;;;;;;6.93;5.03;;;;;;;;;;5082561;28;20036;-79
2021/08/18 05:51:10;;;;;;;6.30;4.55;;;;;;;;;;5082681;28;20034;-79
2021/08/18 05:53:36;;;;;;;7.22;4.80;;;;;;;;;;5100088;28;20032;-79
2021/08/18 05:56:01;;;;;;;6.30;4.25;;;;;;;;;;5072205;28;20040;-79
2021/08/18 05:58:26;;;;;;;6.32;3.85;;;;;;;;;;5073037;28;20051;-79
2021/08/18 06:00:52;;;;;;;6.50;3.90;;;;;;;;;;5103676;28;20043;-79
2021/08/18 06:03:17;;;;;;;3.78;3.10;;;;;;;;;;5120169;28;20032;-79
2021/08/18 06:05:42;;;;;;;6.47;3.08;;;;;;;;;;5102963;28;20043;-79
2021/08/18 06:08:08;;;;;;;4.85;3.38;;;;;;;;;;5102518;28;20032;-79
2021/08/18 06:10:34;;;;;;;4.90;3.30;;;;;;;;;;5102782;28;20031;-79
2021/08/18 06:13:03;;;;;;;6.20;4.05;;;;;;;;;;5119321;28;20374;-79
2021/08/18 06:15:29;;;;;;;6.57;4.97;;;;;;;;;;5102491;28;20035;-79
2021/08/18 06:17:55;;;;;;;4.60;3.88;;;;;;;;;;5102589;28;20059;-79
2021/08/18 06:20:21;;;;;;;5.82;4.18;;;;;;;;;;5102234;28;20035;-79
2021/08/18 06:22:47;;;;;;;5.03;4.00;;;;;;;;;;5102365;28;20031;-79
2021/08/18 06:25:13;;;;;;;4.80;3.85;;;;;;;;;;5100522;28;20040;-79
2021/08/18 06:27:39;;;;;;;5.10;3.92;;;;;;;;;;5081343;28;20500;-79
2021/08/18 06:30:05;;;;;;;6.60;3.75;;;;;;;;;;5099025;28;20030;-79
2021/08/18 06:32:31;;;;;;;4.40;3.50;;;;;;;;;;5087026;28;20056;-79
2021/08/18 06:34:56;;;;;;;4.88;3.08;;;;;;;;;;5063118;28;20494;-79
2021/08/18 06:37:22;;;;;;;4.90;3.30;;;;;;;;;;5062671;28;20059;-79
2021/08/18 06:39:49;;;;;;;7.75;3.08;;;;;;;;;;5078512;28;20097;-80
2021/08/18 06:42:15;;;;;;;3.30;2.60;;;;;;;;;;5063732;28;20051;-80
2021/08/18 06:44:42;;;;;;;4.82;2.50;;;;;;;;;;5061184;28;20041;-79
2021/08/18 06:47:08;;;;;;;2.92;2.10;;;;;;;;;;5061961;28;20062;-80
2021/08/18 06:49:34;;;;;;;5.93;2.17;;;;;;;;;;5081201;28;20039;-80
2021/08/18 06:52:00;;;;;;;1.58;1.42;;;;;;;;;;5062710;28;20423;-80
2021/08/18 06:54:25;;;;;;;3.17;1.67;;;;;;;;;;5079102;28;20048;-80
2021/08/18 06:56:51;;;;;;;2.70;1.65;;;;;;;;;;5061969;28;20040;-80
2021/08/18 06:59:17;;;;;;;2.03;1.45;;;;;;;;;;5061738;28;20043;-80
2021/08/18 07:01:43;;;;;;;1.75;1.60;;;;;;;;;;5061546;28;20043;-80
2021/08/18 07:04:09;;;;;;;4.43;2.22;;;;;;;;;;5078174;28;20501;-80
2021/08/18 07:06:34;;;;;;;3.55;2.20;;;;;;;;;;5060996;28;20024;-79
2021/08/18 07:09:00;;;;;;;2.33;2.00;;;;;;;;;;5060969;28;20032;-80
2021/08/18 07:11:27;;;;;;;5.82;2.55;;;;;;;;;;5078456;28;20166;-79
2021/08/18 07:13:58;;;;;;;3.47;2.35;;;;;;;;;;5078205;28;20099;-80
2021/08/18 07:16:24;;;;;;;3.97;2.30;;;;;;;;;;5069444;28;20035;-80
2021/08/18 07:18:50;;;;;;;4.90;2.80;;;;;;;;;;5119246;28;20397;-80
2021/08/18 07:21:20;;;;;;;5.53;3.08;;;;;;;;;;5100410;28;20032;-80
2021/08/18 07:23:45;;;;;;;5.82;2.75;;;;;;;;;;5096796;28;20081;-80
2021/08/18 07:26:11;;;;;;;5.85;2.97;;;;;;;;;;5097921;28;20055;-80
2021/08/18 07:28:36;;;;;;;4.05;2.30;;;;;;;;;;5098211;28;20036;-80
2021/08/18 07:31:01;;;;;;;4.75;3.20;;;;;;;;;;5080612;28;20028;-80
2021/08/18 07:33:27;;;;;;;6.82;2.60;;;;;;;;;;5080103;28;20040;-80
2021/08/18 07:35:52;;;;;;;4.80;2.75;;;;;;;;;;5080405;28;20485;-80
2021/08/18 07:38:18;;;;;;;3.63;2.58;;;;;;;;;;5080272;28;20036;-81
2021/08/18 07:40:43;;;;;;;3.20;2.53;;;;;;;;;;5080535;28;20036;-80
2021/08/18 07:43:08;;;;;;;4.97;2.70;;;;;;;;;;5097619;28;20031;-80
2021/08/18 07:45:33;;;;;;;4.55;2.70;;;;;;;;;;5097728;28;20401;-80
2021/08/18 07:47:59;;;;;;;4.10;2.65;;;;;;;;;;5080740;28;20043;-80
2021/08/18 07:50:24;;;;;;;3.22;2.47;;;;;;;;;;5080753;28;20028;-80
2021/08/18 07:52:50;;;;;;;4.00;3.05;;;;;;;;;;5080434;28;20384;-81
2021/08/18 07:55:15;;;;;;;4.45;2.65;;;;;;;;;;5077402;28;20040;-80
2021/08/18 07:57:40;;;;;;;3.20;2.70;;;;;;;;;;5094128;28;20036;-80
2021/08/18 08:00:07;;;;;;;3.90;2.90;;;;;;;;;;5059911;28;20043;-80
2021/08/18 08:02:41;;;;;;;3.50;2.88;;;;;;;;;;5081412;28;20409;-80
2021/08/18 08:05:07;;;;;;;4.53;3.63;;;;;;;;;;5096800;28;20031;-80
2021/08/18 08:07:33;;;;;;;5.05;4.07;;;;;;;;;;5098431;28;20043;-80
2021/08/18 08:09:58;;;;;;;5.03;3.45;;;;;;;;;;5080291;28;20028;-80
2021/08/18 08:12:24;;;;;;;5.47;3.83;;;;;;;;;;5098564;28;20541;-80
2021/08/18 08:14:49;;;;;;;4.55;3.60;;;;;;;;;;5080809;28;20382;-80
2021/08/18 08:17:14;;;;;;;8.38;3.92;;;;;;;;;;5080633;28;20035;-80
2021/08/18 08:19:40;;;;;;;5.80;4.13;;;;;;;;;;5097251;28;20042;-80
2021/08/18 08:22:05;;;;;;;5.38;3.72;;;;;;;;;;5098708;28;20032;-80
2021/08/18 08:24:31;;;;;;;6.00;3.88;;;;;;;;;;5090182;28;20137;-80
2021/08/18 08:26:56;;;;;;;6.30;4.38;;;;;;;;;;5117589;28;20046;-80
2021/08/18 08:29:22;;;;;;;6.80;4.07;;;;;;;;;;5117508;28;20504;-80
2021/08/18 08:31:47;;;;;;;4.22;3.80;;;;;;;;;;5101041;28;20496;-80
2021/08/18 08:34:13;;;;;;;5.20;3.83;;;;;;;;;;5119064;28;20179;-80
2021/08/18 08:36:40;;;;;;;4.50;3.60;;;;;;;;;;5100694;28;20036;-80
2021/08/18 08:39:06;;;;;;;4.13;3.72;;;;;;;;;;5084728;28;20067;-81
2021/08/18 08:41:32;;;;;;;4.85;3.38;;;;;;;;;;5101200;28;20386;-80
2021/08/18 08:43:58;;;;;;;5.72;3.55;;;;;;;;;;5119118;28;20062;-81
2021/08/18 08:46:26;;;;;;;8.88;3.35;;;;;;;;;;5100527;28;20055;-81
2021/08/18 08:48:52;;;;;;;5.32;4.07;;;;;;;;;;5100783;28;20031;-80
2021/08/18 08:51:17;;;;;;;7.68;4.18;;;;;;;;;;5099431;28;20592;-80
2021/08/18 08:53:43;;;;;;;6.60;4.15;;;;;;;;;;5084531;28;20062;-80
2021/08/18 08:56:09;;;;;;;5.35;3.80;;;;;;;;;;5083414;28;20032;-80
2021/08/18 08:58:34;;;;;;;6.47;4.20;;;;;;;;;;5100250;28;20039;-80
2021/08/18 09:01:00;;;;;;;7.70;3.45;;;;;;;;;;5100258;28;20069;-81
2021/08/18 09:03:26;;;;;;;8.35;4.05;;;;;;;;;;5082837;28;20062;-80
2021/08/18 09:05:56;;;;;;;5.55;3.90;;;;;;;;;;5083356;28;20036;-81
2021/08/18 09:08:22;;;;;;;5.10;3.88;;;;;;;;;;5100151;28;20036;-81
2021/08/18 09:11:10;;;;;;;5.70;3.22;;;;;;;;;;5082783;28;20032;-81
2021/08/18 09:13:49;;;;;;;6.30;4.18;;;;;;;;;;5100331;28;20044;-80
2021/08/18 09:16:20;;;;;;;5.80;3.35;;;;;;;;;;5083127;28;20105;-80
2021/08/18 09:18:49;;;;;;;7.68;3.70;;;;;;;;;;5100175;28;20039;-80
2021/08/18 09:21:37;;;;;;;7.35;4.00;;;;;;;;;;5098236;28;20043;-80
2021/08/18 09:24:11;;;;;;;6.25;3.72;;;;;;;;;;5082339;28;20043;-80
2021/08/18 09:26:51;;;;;;;5.90;3.40;;;;;;;;;;5080211;28;20048;-80
2021/08/18 09:29:32;;;;;;;4.25;3.47;;;;;;;;;;5081643;28;20029;-80
2021/08/18 09:32:17;;;;;;;8.45;3.85;;;;;;;;;;5080191;28;20073;-81
2021/08/18 09:35:02;;;;;;;7.43;4.00;;;;;;;;;;5079897;28;20044;-81
2021/08/18 09:37:27;;;;;;;9.70;3.83;;;;;;;;;;5062474;28;20037;-81
2021/08/18 09:39:54;;;;;;;8.23;3.88;;;;;;;;;;5078937;28;20040;-80
2021/08/18 09:42:33;;;;;;;8.77;4.20;;;;;;;;;;5062473;28;20040;-80
2021/08/18 09:45:17;;;;;;;7.47;4.30;;;;;;;;;;5079308;28;20036;-80
2021/08/18 09:47:53;;;;;;;7.22;4.25;;;;;;;;;;5078864;28;20051;-80
2021/08/18 09:50:21;;;;;;;4.50;3.50;;;;;;;;;;5062641;28;20090;-80
2021/08/18 09:52:47;;;;;;;9.15;3.60;;;;;;;;;;5062202;28;20500;-80
2021/08/18 09:55:13;;;;;;;7.80;4.45;;;;;;;;;;5062675;28;20117;-81
2021/08/18 09:57:38;;;;;;;7.03;4.20;;;;;;;;;;5062076;28;20106;-81
2021/08/18 10:00:04;;;;;;;7.47;4.65;;;;;;;;;;5079243;28;20071;-81
2021/08/18 10:02:30;;;;;;;4.50;3.78;;;;;;;;;;5078575;28;20029;-81
2021/08/18 10:04:59;;;;;;;6.35;4.30;;;;;;;;;;5061886;28;20040;-80
2021/08/18 10:07:28;;;;;;;7.30;3.92;;;;;;;;;;5078551;28;20039;-80
2021/08/18 10:09:54;;;;;;;6.15;4.10;;;;;;;;;;5061919;28;20033;-81
2021/08/18 10:12:19;;;;;;;5.47;3.67;;;;;;;;;;5078605;28;20043;-81
2021/08/18 10:14:45;;;;;;;5.30;3.80;;;;;;;;;;5081646;28;20033;-81
2021/08/18 10:17:10;;;;;;;5.32;3.80;;;;;;;;;;5063884;28;20032;-81
2021/08/18 10:19:36;;;;;;;5.97;3.65;;;;;;;;;;5079423;28;20064;-80
2021/08/18 10:22:01;;;;;;;4.00;3.20;;;;;;;;;;5080585;28;20410;-81
2021/08/18 10:24:32;;;;;;;6.82;3.17;;;;;;;;;;5061924;28;20033;-81
2021/08/18 10:26:58;;;;;;;5.57;3.25;;;;;;;;;;5079020;28;20043;-82
2021/08/18 10:29:30;;;;;;;4.75;3.00;;;;;;;;;;5062036;28;20036;-81
2021/08/18 10:31:57;;;;;;;4.18;3.33;;;;;;;;;;5062297;28;20045;-81
2021/08/18 10:34:26;;;;;;;5.13;2.75;;;;;;;;;;5079952;28;20041;-81
2021/08/18 10:36:56;;;;;;;5.78;3.13;;;;;;;;;;5062419;28;20082;-81
2021/08/18 10:39:21;;;;;;;3.92;2.35;;;;;;;;;;5061928;28;20118;-81
2021/08/18 10:42:09;;;;;;;7.75;3.33;;;;;;;;;;5067215;28;20497;-81
2021/08/18 10:44:43;;;;;;;2.85;2.10;;;;;;;;;;5120569;28;20042;-82
2021/08/18 10:47:14;;;;;;;5.05;2.20;;;;;;;;;;5102763;28;20120;-81
2021/08/18 10:49:40;;;;;;;3.17;2.28;;;;;;;;;;5101959;28;20028;-83
2021/08/18 10:52:06;;;;;;;2.97;1.90;;;;;;;;;;5092999;28;20092;-81
2021/08/18 10:54:31;;;;;;;3.17;1.92;;;;;;;;;;5100121;28;20109;-81
2021/08/18 10:57:02;;;;;;;6.72;2.17;;;;;;;;;;5098833;28;20047;-81
2021/08/18 10:59:36;;;;;;;3.20;1.98;;;;;;;;;;5098249;28;20039;-81
2021/08/18 11:02:03;;;;;;;2.67;1.80;;;;;;;;;;5114027;28;20061;-80
2021/08/18 11:04:50;;;;;;;3.50;2.10;;;;;;;;;;5115162;28;20019;-80
2021/08/18 11:07:16;;;;;;;3.70;2.00;;;;;;;;;;5109285;28;20050;-80
2021/08/18 11:09:48;;;;;;;2.45;1.67;;;;;;;;;;5093577;28;20027;-81
2021/08/18 11:12:51;;;;;;;2.95;1.92;;;;;;;;;;5093303;28;20040;-80
2021/08/18 11:15:42;;;;;;;1.95;1.60;;;;;;;;;;5093098;28;20592;-80
2021/08/18 11:18:08;;;;;;;2.33;1.85;;;;;;;;;;5110074;28;20044;-81
2021/08/18 11:20:34;;;;;;;3.53;1.80;;;;;;;;;;5091920;28;20016;-80
2021/08/18 11:23:06;;;;;;;2.42;1.50;;;;;;;;;;5092552;28;20036;-80
2021/08/18 11:25:42;;;;;;;3.28;2.03;;;;;;;;;;5089128;28;20043;-80
2021/08/18 11:28:07;;;;;;;3.53;1.42;;;;;;;;;;5088738;28;20063;-80
2021/08/18 11:30:33;;;;;;;2.20;1.60;;;;;;;;;;5072196;28;20033;-81
2021/08/18 11:33:18;;;;;;;1.65;1.42;;;;;;;;;;5088400;28;20048;-80
2021/08/18 11:35:44;;;;;;;5.20;1.63;;;;;;;;;;5071334;28;20044;-80
2021/08/18 11:38:10;;;;;;;3.90;1.55;;;;;;;;;;5070948;28;20036;-81
2021/08/18 11:40:37;;;;;;;2.10;1.58;;;;;;;;;;5072104;28;20033;-80
2021/08/18 11:43:04;;;;;;;2.67;1.92;;;;;;;;;;5074288;28;20044;-81
2021/08/18 11:45:31;;;;;;;3.42;1.60;;;;;;;;;;5074346;28;20021;-81
2021/08/18 11:48:03;;;;;;;3.33;1.40;;;;;;;;;;5074057;28;20044;-81
2021/08/18 11:50:29;;;;;;;2.30;1.50;;;;;;;;;;5073569;28;20036;-80
2021/08/18 11:53:03;;;;;;;1.45;1.23;;;;;;;;;;5073284;28;20052;-81
2021/08/18 11:55:29;;;;;;;2.33;1.38;;;;;;;;;;5107111;28;20042;-80
2021/08/18 11:58:04;;;;;;;2.78;1.30;;;;;;;;;;5112612;28;20039;-81
2021/08/18 12:00:30;;;;;;;1.83;1.23;;;;;;;;;;5112838;28;20023;-81
2021/08/18 12:02:57;;;;;;;4.53;1.48;;;;;;;;;;5104100;28;20455;-81
2021/08/18 12:05:34;;;;;;;2.03;1.48;;;;;;;;;;5108775;28;20071;-80
2021/08/18 12:08:17;;;;;;;1.92;1.30;;;;;;;;;;5092423;28;20035;-80
2021/08/18 12:10:45;;;;;;;1.58;1.30;;;;;;;;;;5092143;28;20032;-80
2021/08/18 12:13:14;;;;;;;4.00;1.55;;;;;;;;;;5091595;28;20040;-80
2021/08/18 12:15:47;;;;;;;1.63;1.33;;;;;;;;;;5090726;28;20036;-80
2021/08/18 12:18:33;;;;;;;1.95;1.60;;;;;;;;;;5090711;28;20039;-81
2021/08/18 12:21:17;;;;;;;2.42;1.35;;;;;;;;;;5091614;28;20024;-80
2021/08/18 12:23:45;;;;;;;2.83;1.83;;;;;;;;;;5108207;28;20040;-81
2021/08/18 12:26:31;;;;;;;2.40;1.67;;;;;;;;;;5102861;28;20093;-81
2021/08/18 12:28:59;;;;;;;2.92;1.40;;;;;;;;;;5101070;28;20062;-81
2021/08/18 12:31:25;;;;;;;2.40;1.67;;;;;;;;;;5083697;28;20096;-81
2021/08/18 12:34:07;;;;;;;3.78;1.98;;;;;;;;;;5083701;28;20082;-81
2021/08/18 12:36:33;;;;;;;4.10;1.90;;;;;;;;;;5100494;28;20498;-81
2021/08/18 12:38:58;;;;;;;5.60;1.80;;;;;;;;;;5083365;28;20146;-81
2021/08/18 12:41:34;;;;;;;4.47;1.70;;;;;;;;;;5084418;28;20039;-81
2021/08/18 12:44:10;;;;;;;7.03;1.77;;;;;;;;;;5084519;28;20048;-81
2021/08/18 12:46:40;;;;;;;2.33;1.55;;;;;;;;;;5100687;28;20036;-81
2021/08/18 12:49:28;;;;;;;4.65;1.63;;;;;;;;;;5101018;28;20036;-81
2021/08/18 12:51:55;;;;;;;3.28;1.48;;;;;;;;;;5100902;28;20546;-81
2021/08/18 12:54:20;;;;;;;4.63;1.77;;;;;;;;;;5091876;28;20112;-81
2021/08/18 12:56:46;;;;;;;2.35;1.40;;;;;;;;;;5064034;28;20087;-81
2021/08/18 12:59:12;;;;;;;2.35;1.50;;;;;;;;;;5063657;28;20035;-81
2021/08/18 13:01:37;;;;;;;3.25;1.50;;;;;;;;;;5063513;28;20067;-81
2021/08/18 13:04:03;;;;;;;3.38;1.67;;;;;;;;;;5079808;28;20386;-80
2021/08/18 13:06:28;;;;;;;2.63;1.75;;;;;;;;;;5063187;28;20036;-81
2021/08/18 13:08:53;;;;;;;2.17;1.40;;;;;;;;;;5079590;28;20081;-81
2021/08/18 13:11:19;;;;;;;4.28;1.88;;;;;;;;;;5079328;28;20040;-81
2021/08/18 13:13:44;;;;;;;2.55;1.60;;;;;;;;;;5062663;28;20029;-81
2021/08/18 13:16:10;;;;;;;4.07;1.50;;;;;;;;;;5079335;28;20036;-81
2021/08/18 13:18:35;;;;;;;2.35;1.60;;;;;;;;;;5063030;28;20040;-81
2021/08/18 13:21:03;;;;;;;2.13;1.70;;;;;;;;;;5079162;28;20103;-81
2021/08/18 13:23:30;;;;;;;7.05;1.75;;;;;;;;;;5062932;28;20032;-81
2021/08/18 13:25:55;;;;;;;2.13;1.67;;;;;;;;;;5098301;28;20255;-81
2021/08/18 13:28:21;;;;;;;3.33;1.77;;;;;;;;;;5104046;28;20477;-81
2021/08/18 13:30:46;;;;;;;5.38;1.60;;;;;;;;;;5120889;28;20031;-81
2021/08/18 13:33:11;;;;;;;3.78;1.75;;;;;;;;;;5104402;28;20031;-81
2021/08/18 13:35:37;;;;;;;5.22;1.70;;;;;;;;;;5098929;28;20040;-81
2021/08/18 13:38:02;;;;;;;4.20;1.65;;;;;;;;;;5100172;28;20036;-81
2021/08/18 13:40:28;;;;;;;3.15;1.73;;;;;;;;;;5083284;28;20029;-81
2021/08/18 13:42:53;;;;;;;2.58;1.70;;;;;;;;;;5083237;28;20035;-81
2021/08/18 13:45:19;;;;;;;4.18;1.73;;;;;;;;;;5100881;28;20042;-81
2021/08/18 13:47:44;;;;;;;4.07;2.17;;;;;;;;;;5082900;28;20032;-81
2021/08/18 13:50:10;;;;;;;5.38;1.90;;;;;;;;;;5100122;28;20047;-81
2021/08/18 13:52:36;;;;;;;2.85;1.60;;;;;;;;;;5087198;28;20393;-81
2021/08/18 13:55:01;;;;;;;2.40;1.48;;;;;;;;;;5120079;28;20035;-81
2021/08/18 13:57:28;;;;;;;2.22;1.67;;;;;;;;;;5119919;28;20059;-81
2021/08/18 13:59:53;;;;;;;3.75;1.88;;;;;;;;;;5121410;27;20023;-81
2021/08/18 14:02:18;;;;;;;2.58;1.98;;;;;;;;;;5118621;28;20035;-81
2021/08/18 14:04:44;;;;;;;5.45;2.40;;;;;;;;;;5119651;28;20035;-81
2021/08/18 14:07:09;;;;;;;3.28;2.40;;;;;;;;;;5119808;28;20039;-81
2021/08/18 14:09:35;;;;;;;3.13;2.38;;;;;;;;;;5119996;28;20040;-80
2021/08/18 14:12:00;;;;;;;7.55;2.65;;;;;;;;;;5118955;28;20103;-81
2021/08/18 14:14:29;;;;;;;3.28;2.40;;;;;;;;;;5121211;28;20053;-81
2021/08/18 14:16:55;;;;;;;3.03;2.20;;;;;;;;;;5097729;28;20046;-81
2021/08/18 14:19:20;;;;;;;4.65;2.30;;;;;;;;;;5098846;28;20043;-81
2021/08/18 14:21:46;;;;;;;3.55;2.40;;;;;;;;;;5081734;28;20048;-81
2021/08/18 14:24:11;;;;;;;3.20;2.10;;;;;;;;;;5080387;28;20040;-80
2021/08/18 14:26:37;;;;;;;2.17;1.83;;;;;;;;;;5061350;28;20123;-81
2021/08/18 14:29:04;;;;;;;2.72;1.88;;;;;;;;;;5061593;28;20437;-81
2021/08/18 14:31:30;;;;;;;3.88;2.15;;;;;;;;;;5078029;28;20036;-81
2021/08/18 14:33:55;;;;;;;4.13;2.00;;;;;;;;;;5061404;28;20063;-81
2021/08/18 14:36:21;;;;;;;3.50;2.25;;;;;;;;;;5078018;28;20051;-81
2021/08/18 14:38:47;;;;;;;3.55;2.55;;;;;;;;;;5060470;28;20037;-80
2021/08/18 14:41:12;;;;;;;2.33;1.92;;;;;;;;;;5060635;28;20044;-80
2021/08/18 14:43:39;;;;;;;2.47;1.70;;;;;;;;;;5077569;28;20067;-81